Time;durP1;ratioP1;P1;durP2;ratioP2;P2;SDS_P1;SDS_P2;PMS_P1;PMS_P2;Temp;Humidity;BMP_temperature;BMP_pressure;BME280_temperature;BME280_humidity;BME280_pressure;Samples;Min_cycle;Max_cycle;Signal;HPM_P1;HPM_P2
2022/01/06 00:01:16;;;;;;;6.47;2.83;;;;;;;4.17;93.52;98425.56;5013542;28;20029;-68
2022/01/06 00:03:43;;;;;;;10.88;3.35;;;;;;;4.16;93.65;98436.88;5008822;28;20037;-68
2022/01/06 00:06:10;;;;;;;9.60;2.88;;;;;;;4.16;93.45;98436.00;5013266;28;20052;-68
2022/01/06 00:08:37;;;;;;;14.73;3.08;;;;;;;4.16;93.42;98436.88;5012411;28;20179;-68
2022/01/06 00:11:06;;;;;;;22.02;2.75;;;;;;;4.15;93.30;98440.31;5009224;28;20025;-68
2022/01/06 00:13:43;;;;;;;13.15;3.20;;;;;;;4.11;93.94;98448.13;5008877;28;20030;-68
2022/01/06 00:17:02;;;;;;;8.13;3.22;;;;;;;4.23;93.01;98449.03;5015314;28;20029;-68
2022/01/06 00:24:19;;;;;;;14.65;2.88;;;;;;;4.18;93.56;98440.31;5013241;28;20053;-68
2022/01/06 00:26:45;;;;;;;18.00;3.90;;;;;;;4.21;92.94;98440.34;5007490;28;20046;-68
2022/01/06 00:29:11;;;;;;;14.80;3.60;;;;;;;4.21;93.09;98432.53;5020384;28;20326;-68
2022/01/06 00:31:37;;;;;;;14.05;3.08;;;;;;;4.22;93.37;98436.88;5019012;28;20079;-68
2022/01/06 00:34:05;;;;;;;12.05;3.28;;;;;;;4.21;93.66;98424.72;5020105;28;20022;-68
2022/01/06 00:36:30;;;;;;;11.73;2.92;;;;;;;4.23;93.24;98428.19;5015865;28;20022;-68
2022/01/06 00:38:56;;;;;;;9.23;2.95;;;;;;;4.26;93.47;98427.31;5010551;28;20084;-68
2022/01/06 00:41:22;;;;;;;16.77;3.13;;;;;;;4.24;93.47;98419.50;5014372;28;20345;-67
2022/01/06 00:43:47;;;;;;;7.70;2.67;;;;;;;4.22;92.79;98421.25;5008509;28;20046;-67
2022/01/06 00:46:13;;;;;;;15.05;3.13;;;;;;;4.24;93.08;98424.72;5020560;28;20030;-67
2022/01/06 00:48:38;;;;;;;24.38;3.47;;;;;;;4.29;92.92;98432.53;5019502;28;20026;-67
2022/01/06 00:51:05;;;;;;;10.88;2.65;;;;;;;4.28;93.64;98431.66;5009385;28;20022;-68
2022/01/06 00:53:30;;;;;;;18.13;2.97;;;;;;;4.23;93.24;98422.09;5020907;28;20026;-68
2022/01/06 00:55:56;;;;;;;11.00;3.58;;;;;;;4.25;93.14;98436.88;5014433;28;20206;-68
2022/01/06 00:58:22;;;;;;;8.18;2.88;;;;;;;4.24;93.13;98435.13;5016167;28;20218;-68
2022/01/06 01:00:47;;;;;;;11.50;3.28;;;;;;;4.22;93.06;98434.28;5011384;28;20025;-68
2022/01/06 01:03:19;;;;;;;10.07;2.85;;;;;;;4.25;93.20;98436.88;5019308;28;20088;-68
2022/01/06 01:05:49;;;;;;;10.63;3.08;;;;;;;4.30;92.67;98427.34;5013765;28;20023;-68
2022/01/06 01:08:15;;;;;;;9.65;3.33;;;;;;;4.30;93.32;98437.75;5017614;28;20021;-68
2022/01/06 01:10:42;;;;;;;16.98;3.58;;;;;;;4.29;92.85;98436.03;5013717;28;20021;-68
2022/01/06 01:13:10;;;;;;;19.70;2.90;;;;;;;4.27;93.21;98439.47;5015375;28;20029;-68
2022/01/06 01:15:44;;;;;;;12.27;2.92;;;;;;;4.27;92.72;98439.47;5017821;28;20026;-68
2022/01/06 01:18:10;;;;;;;13.30;3.08;;;;;;;4.28;92.84;98441.22;5017036;28;20036;-68
2022/01/06 01:20:36;;;;;;;6.25;2.50;;;;;;;4.29;92.73;98442.97;5019499;28;20021;-68
2022/01/06 01:23:02;;;;;;;10.82;2.70;;;;;;;4.33;91.87;98449.91;5019838;28;20107;-68
2022/01/06 01:25:27;;;;;;;8.93;2.80;;;;;;;4.31;92.45;98455.13;5025190;28;20080;-68
2022/01/06 01:27:55;;;;;;;10.13;2.85;;;;;;;4.31;92.70;98457.72;5022584;28;20053;-68
2022/01/06 01:30:28;;;;;;;4.72;2.58;;;;;;;4.36;92.83;98449.91;5018382;28;20030;-68
2022/01/06 01:32:54;;;;;;;10.63;3.42;;;;;;;4.35;92.14;98453.41;5008940;28;20028;-67
2022/01/06 01:35:20;;;;;;;9.93;2.55;;;;;;;4.28;92.88;98452.50;5019369;28;20026;-67
2022/01/06 01:37:45;;;;;;;10.23;3.15;;;;;;;4.25;93.33;98456.84;5018401;28;20090;-68
2022/01/06 01:40:11;;;;;;;21.25;3.40;;;;;;;4.31;92.55;98468.13;5011935;28;20014;-68
2022/01/06 01:42:37;;;;;;;9.63;2.83;;;;;;;4.29;92.86;98459.47;5018359;28;20125;-68
2022/01/06 01:45:05;;;;;;;11.45;2.60;;;;;;;4.29;93.40;98464.69;5016283;28;20025;-68
2022/01/06 01:47:43;;;;;;;14.40;3.03;;;;;;;4.27;92.83;98463.78;5018151;28;20018;-68
2022/01/06 01:50:20;;;;;;;10.25;2.72;;;;;;;4.28;92.59;98473.34;5008603;28;20022;-68
2022/01/06 01:52:50;;;;;;;19.92;3.25;;;;;;;4.26;92.50;98469.88;5024744;28;20045;-68
2022/01/06 01:55:19;;;;;;;11.18;3.00;;;;;;;4.37;92.62;98473.38;5012811;28;20052;-68
2022/01/06 01:57:45;;;;;;;13.85;3.40;;;;;;;4.33;92.97;98466.41;5009300;28;20015;-68
2022/01/06 02:00:12;;;;;;;10.68;3.33;;;;;;;4.38;92.45;98469.91;5022932;28;20308;-68
2022/01/06 02:02:38;;;;;;;14.02;3.13;;;;;;;4.29;93.08;98464.69;5015974;28;20026;-68
2022/01/06 02:05:05;;;;;;;10.43;3.40;;;;;;;4.33;93.04;98473.34;5021398;28;20022;-68
2022/01/06 02:07:32;;;;;;;12.25;3.13;;;;;;;4.26;93.68;98472.50;5016632;28;20022;-68
2022/01/06 02:09:57;;;;;;;14.57;3.65;;;;;;;4.26;93.62;98475.09;5010089;28;20018;-68
2022/01/06 02:12:30;;;;;;;15.60;2.97;;;;;;;4.33;93.17;98471.63;5012947;28;20322;-68
2022/01/06 02:14:56;;;;;;;7.63;2.85;;;;;;;4.37;92.65;98481.19;5016482;28;20040;-68
2022/01/06 02:17:22;;;;;;;10.05;2.75;;;;;;;4.36;92.87;98476.84;5017650;28;20322;-68
2022/01/06 02:19:53;;;;;;;8.57;3.80;;;;;;;4.30;93.34;98476.84;5014452;28;20018;-68
2022/01/06 02:22:19;;;;;;;15.02;2.90;;;;;;;4.38;92.65;98482.94;5015620;28;20348;-68
2022/01/06 02:24:44;;;;;;;12.13;2.78;;;;;;;4.31;92.89;98481.16;5009699;28;20061;-68
2022/01/06 02:27:09;;;;;;;21.75;3.17;;;;;;;4.33;92.83;98492.47;5019792;28;20100;-68
2022/01/06 02:29:35;;;;;;;16.33;3.17;;;;;;;4.33;92.96;98487.25;5021362;28;20229;-68
2022/01/06 02:32:07;;;;;;;14.00;3.90;;;;;;;4.27;93.25;98489.84;5020692;28;20018;-68
2022/01/06 02:34:32;;;;;;;13.40;3.13;;;;;;;4.29;92.73;98500.28;5010594;28;20022;-68
2022/01/06 02:36:57;;;;;;;14.52;3.75;;;;;;;4.36;93.57;98487.28;5008994;28;20034;-68
2022/01/06 02:39:23;;;;;;;11.18;4.00;;;;;;;4.30;93.17;98499.41;5018341;28;20332;-68
2022/01/06 02:41:48;;;;;;;7.63;3.17;;;;;;;4.32;92.97;98506.38;5011301;28;20083;-68
2022/01/06 02:44:14;;;;;;;22.95;4.55;;;;;;;4.38;93.51;98503.78;5019066;28;20029;-68
2022/01/06 02:46:40;;;;;;;10.82;3.15;;;;;;;4.35;92.70;98495.09;5024493;28;20026;-68
2022/01/06 02:49:05;;;;;;;13.65;3.05;;;;;;;4.34;92.93;98504.63;5024859;28;20018;-68
2022/01/06 02:51:31;;;;;;;21.48;4.13;;;;;;;4.27;93.05;98513.28;5023342;28;20026;-68
2022/01/06 02:53:56;;;;;;;8.75;3.00;;;;;;;4.28;93.44;98504.59;5009173;28;20022;-68
2022/01/06 02:56:21;;;;;;;17.98;3.88;;;;;;;4.28;93.30;98509.81;5016951;28;20077;-68
2022/01/06 02:58:47;;;;;;;8.93;3.47;;;;;;;4.27;93.29;98517.63;5020395;28;20049;-68
2022/01/06 03:01:12;;;;;;;15.23;3.45;;;;;;;4.25;94.21;98522.81;5021940;28;20077;-68
2022/01/06 03:03:38;;;;;;;10.00;3.20;;;;;;;4.26;93.91;98524.59;5015319;28;20105;-68
2022/01/06 03:06:03;;;;;;;13.48;3.92;;;;;;;4.30;93.23;98526.34;5012634;28;20249;-68
2022/01/06 03:08:29;;;;;;;14.75;2.80;;;;;;;4.31;93.15;98525.47;5012286;28;20336;-68
2022/01/06 03:10:56;;;;;;;19.20;3.45;;;;;;;4.30;93.30;98526.34;5012471;28;20246;-67
2022/01/06 03:13:22;;;;;;;10.88;3.55;;;;;;;4.28;93.27;98524.59;5017560;28;20083;-67
2022/01/06 03:15:47;;;;;;;10.55;3.53;;;;;;;4.34;93.58;98535.88;5013490;28;20318;-67
2022/01/06 03:18:13;;;;;;;19.42;4.50;;;;;;;4.30;94.10;98549.78;5020008;28;20026;-67
2022/01/06 03:20:38;;;;;;;10.00;3.55;;;;;;;4.26;94.38;98552.38;5014397;28;20026;-67
2022/01/06 03:23:04;;;;;;;20.98;4.45;;;;;;;4.23;94.33;98537.59;5007609;28;20026;-68
2022/01/06 03:25:29;;;;;;;20.95;3.60;;;;;;;4.24;93.81;98544.53;5010588;28;20061;-68
2022/01/06 03:27:54;;;;;;;10.13;3.83;;;;;;;4.23;94.04;98548.03;5012822;28;20037;-68
2022/01/06 03:30:22;;;;;;;16.15;3.53;;;;;;;4.25;93.86;98546.28;5019358;28;20057;-68
2022/01/06 03:32:48;;;;;;;10.07;3.85;;;;;;;4.27;94.60;98554.09;5009999;28;20053;-68
2022/01/06 03:35:16;;;;;;;6.57;3.42;;;;;;;4.22;94.20;98561.03;5019421;28;20068;-68
2022/01/06 03:37:41;;;;;;;20.92;3.97;;;;;;;4.23;94.05;98562.75;5015489;28;20060;-68
2022/01/06 03:40:08;;;;;;;8.60;3.50;;;;;;;4.24;93.58;98554.97;5010360;28;20085;-68
2022/01/06 03:42:35;;;;;;;12.75;3.30;;;;;;;4.29;94.00;98562.78;5019162;28;20329;-68
2022/01/06 03:45:03;;;;;;;13.88;3.78;;;;;;;4.27;94.20;98570.59;5008361;28;20375;-68
2022/01/06 03:47:29;;;;;;;25.60;4.85;;;;;;;4.28;93.45;98564.53;5016849;28;20028;-68
2022/01/06 03:49:54;;;;;;;7.10;2.88;;;;;;;4.27;94.21;98564.50;5019093;28;20041;-68
2022/01/06 03:52:20;;;;;;;12.73;3.85;;;;;;;4.27;94.10;98568.00;5007989;28;20060;-68
2022/01/06 03:54:45;;;;;;;10.23;3.50;;;;;;;4.24;94.31;98565.38;5010193;28;20375;-68
2022/01/06 03:57:10;;;;;;;11.65;3.45;;;;;;;4.22;93.53;98567.13;5008175;28;20129;-68
2022/01/06 03:59:36;;;;;;;10.20;3.90;;;;;;;4.22;94.39;98561.91;5020052;28;20028;-67
2022/01/06 04:02:02;;;;;;;17.30;4.28;;;;;;;4.22;93.83;98561.91;5017293;28;20026;-68
2022/01/06 04:04:28;;;;;;;13.10;4.28;;;;;;;4.24;93.83;98565.38;5014086;28;20054;-68
2022/01/06 04:06:53;;;;;;;7.22;3.08;;;;;;;4.19;93.74;98564.50;5019307;28;20321;-68
2022/01/06 04:09:18;;;;;;;12.85;3.80;;;;;;;4.09;94.37;98570.50;5012398;28;20240;-68
2022/01/06 04:11:44;;;;;;;8.70;3.35;;;;;;;4.05;94.81;98567.91;5006956;28;20026;-68
2022/01/06 04:14:09;;;;;;;22.83;4.53;;;;;;;4.13;94.83;98572.28;5019121;28;20025;-68
2022/01/06 04:16:38;;;;;;;15.07;3.95;;;;;;;4.08;94.46;98568.78;5011394;28;20028;-68
2022/01/06 04:19:03;;;;;;;12.82;3.33;;;;;;;4.03;94.60;98570.50;5015555;28;20033;-68
2022/01/06 04:21:29;;;;;;;22.83;3.78;;;;;;;3.98;94.73;98572.19;5015193;28;20018;-68
2022/01/06 04:23:54;;;;;;;18.05;4.13;;;;;;;3.95;94.76;98573.91;5018576;28;20041;-68
2022/01/06 04:26:20;;;;;;;13.07;3.40;;;;;;;3.91;94.86;98570.44;5012766;28;20080;-68
2022/01/06 04:28:45;;;;;;;11.93;3.67;;;;;;;3.87;95.03;98578.22;5013712;28;20227;-68
2022/01/06 04:31:11;;;;;;;8.23;3.38;;;;;;;3.78;94.73;98584.25;5013230;28;20353;-68
2022/01/06 04:33:36;;;;;;;19.08;4.22;;;;;;;3.85;94.97;98586.00;5020959;28;20032;-67
2022/01/06 04:36:03;;;;;;;7.75;3.50;;;;;;;3.74;94.58;98582.44;5016778;28;20018;-67
2022/01/06 04:38:29;;;;;;;13.10;3.40;;;;;;;3.67;94.35;98591.09;5028156;28;20052;-67
2022/01/06 04:40:56;;;;;;;18.73;4.28;;;;;;;3.64;94.97;98596.28;5021296;28;20018;-67
2022/01/06 04:43:22;;;;;;;6.72;3.50;;;;;;;3.58;95.23;98597.97;5024146;28;20030;-67
2022/01/06 04:45:47;;;;;;;12.48;3.60;;;;;;;3.52;94.95;98601.41;5022378;28;20024;-67
2022/01/06 04:48:13;;;;;;;14.38;3.53;;;;;;;3.45;94.87;98612.59;5012728;28;20326;-67
2022/01/06 04:50:38;;;;;;;9.43;3.90;;;;;;;3.34;95.46;98608.16;5027038;28;20025;-67
2022/01/06 04:53:04;;;;;;;12.70;4.43;;;;;;;3.33;95.89;98620.31;5028967;28;20191;-68
2022/01/06 04:55:29;;;;;;;11.57;3.22;;;;;;;3.30;95.62;98615.09;5023503;28;20018;-68
2022/01/06 04:57:54;;;;;;;24.42;4.82;;;;;;;3.27;95.70;98625.47;5025644;28;20340;-68
2022/01/06 05:00:20;;;;;;;11.63;3.88;;;;;;;3.28;96.42;98624.59;5014973;28;20089;-68
2022/01/06 05:02:45;;;;;;;14.25;3.97;;;;;;;3.33;96.34;98620.31;5014105;28;20033;-68
2022/01/06 05:05:13;;;;;;;12.80;4.70;;;;;;;3.38;96.52;98618.63;5013546;28;20093;-68
2022/01/06 05:07:40;;;;;;;25.45;4.68;;;;;;;3.29;96.03;98631.53;5016109;28;20373;-68
2022/01/06 05:10:06;;;;;;;10.07;3.38;;;;;;;3.38;96.50;98633.34;5014019;28;20010;-68
2022/01/06 05:12:32;;;;;;;13.38;4.43;;;;;;;3.37;96.64;98637.69;5026779;28;20064;-68
2022/01/06 05:14:57;;;;;;;18.08;4.13;;;;;;;3.42;97.13;98641.19;5020872;28;20018;-68
2022/01/06 05:17:22;;;;;;;9.40;4.22;;;;;;;3.48;96.88;98630.00;5024475;28;20103;-68
2022/01/06 05:19:48;;;;;;;10.07;4.70;;;;;;;3.48;97.77;98630.84;5022319;28;20182;-68
2022/01/06 05:22:13;;;;;;;12.45;3.72;;;;;;;3.53;96.84;98634.38;5026507;28;20060;-68
2022/01/06 05:24:39;;;;;;;12.73;4.35;;;;;;;3.45;97.25;98641.22;5017203;28;20165;-68
2022/01/06 05:27:05;;;;;;;11.40;3.80;;;;;;;3.41;97.29;98639.47;5017948;28;20104;-68
2022/01/06 05:29:30;;;;;;;19.65;4.10;;;;;;;3.36;96.95;98633.31;5011806;28;20042;-68
2022/01/06 05:31:56;;;;;;;16.95;3.25;;;;;;;3.30;96.97;98630.69;5012622;28;20048;-67
2022/01/06 05:34:22;;;;;;;11.10;3.53;;;;;;;3.22;97.06;98647.94;5011918;28;20057;-67
2022/01/06 05:36:47;;;;;;;12.13;4.20;;;;;;;3.12;97.13;98651.31;5023009;28;20022;-68
2022/01/06 05:39:12;;;;;;;12.27;4.40;;;;;;;3.06;97.02;98666.84;5025347;28;20329;-68
2022/01/06 05:41:38;;;;;;;11.60;4.47;;;;;;;3.13;97.24;98665.22;5027110;28;20029;-68
2022/01/06 05:44:04;;;;;;;10.77;3.17;;;;;;;3.18;97.71;98668.72;5027094;28;20028;-68
2022/01/06 05:46:29;;;;;;;11.73;3.38;;;;;;;3.09;97.57;98677.28;5026804;28;20025;-68
2022/01/06 05:48:55;;;;;;;9.25;3.53;;;;;;;3.18;97.67;98672.19;5026791;28;20060;-68
2022/01/06 05:51:20;;;;;;;14.20;3.45;;;;;;;3.20;97.26;98680.84;5026948;28;20018;-68
2022/01/06 05:53:46;;;;;;;17.73;4.15;;;;;;;3.16;97.51;98678.25;5026634;28;20317;-68
2022/01/06 05:56:11;;;;;;;15.95;4.75;;;;;;;3.13;97.22;98679.06;5026603;28;20026;-68
2022/01/06 05:58:39;;;;;;;13.05;3.45;;;;;;;3.09;97.03;98692.88;5026591;28;20033;-68
2022/01/06 06:01:06;;;;;;;13.43;3.88;;;;;;;3.03;97.05;98698.03;5026741;28;20209;-68
2022/01/06 06:03:32;;;;;;;7.22;3.17;;;;;;;2.94;96.88;98703.13;5026461;28;20021;-68
2022/01/06 06:05:57;;;;;;;12.82;3.78;;;;;;;2.89;97.14;98703.91;5026433;28;20018;-68
2022/01/06 06:08:22;;;;;;;10.70;4.03;;;;;;;2.76;98.20;98702.91;5026380;28;20022;-68
2022/01/06 06:10:48;;;;;;;22.67;4.68;;;;;;;2.76;98.03;98713.31;5026341;28;20093;-68
2022/01/06 06:13:14;;;;;;;9.40;3.40;;;;;;;2.68;98.23;98708.84;5026385;28;20025;-68
2022/01/06 06:15:39;;;;;;;23.10;3.67;;;;;;;2.71;98.55;98714.97;5026269;28;20249;-68
2022/01/06 06:18:09;;;;;;;11.80;4.07;;;;;;;2.69;98.43;98716.66;5026185;28;20053;-68
2022/01/06 06:20:35;;;;;;;14.43;3.83;;;;;;;2.62;98.43;98720.03;5025999;28;20026;-68
2022/01/06 06:23:00;;;;;;;9.43;3.65;;;;;;;2.58;98.05;98723.44;5026125;28;20033;-68
2022/01/06 06:25:25;;;;;;;14.68;5.47;;;;;;;2.43;98.11;98718.03;5025857;28;20241;-68
2022/01/06 06:27:51;;;;;;;20.60;4.55;;;;;;;2.41;98.04;98718.88;5010866;28;20038;-68
2022/01/06 06:30:18;;;;;;;9.30;3.92;;;;;;;2.35;97.94;98719.69;5005418;28;20014;-68
2022/01/06 06:32:43;;;;;;;22.52;4.82;;;;;;;2.14;98.08;98720.25;5005646;28;20313;-67
2022/01/06 06:35:09;;;;;;;13.32;4.72;;;;;;;2.06;98.79;98721.84;5005384;28;20029;-67
2022/01/06 06:37:34;;;;;;;23.25;4.55;;;;;;;1.99;98.94;98709.63;5005594;28;20018;-67
2022/01/06 06:40:00;;;;;;;10.98;4.35;;;;;;;1.87;99.07;98716.34;5005160;28;20041;-67
2022/01/06 06:42:28;;;;;;;13.63;3.72;;;;;;;1.76;99.37;98710.97;5004804;28;20251;-67
2022/01/06 06:44:54;;;;;;;24.75;5.75;;;;;;;1.63;99.64;98710.75;5005176;28;20375;-67
2022/01/06 06:47:19;;;;;;;15.52;4.35;;;;;;;1.61;99.78;98720.22;5007936;28;20018;-67
2022/01/06 06:49:44;;;;;;;19.63;4.97;;;;;;;1.58;100.00;98725.38;5013973;28;20061;-67
2022/01/06 06:52:10;;;;;;;16.35;4.45;;;;;;;1.56;99.93;98722.75;5005934;28;20376;-67
2022/01/06 06:54:36;;;;;;;15.52;5.05;;;;;;;1.43;99.82;98720.78;5005930;28;20030;-67
2022/01/06 06:57:01;;;;;;;16.73;4.45;;;;;;;1.40;100.00;98730.22;5005880;28;20318;-67
2022/01/06 06:59:27;;;;;;;15.32;5.00;;;;;;;1.33;100.00;98728.38;5005734;28;20025;-67
2022/01/06 07:01:52;;;;;;;13.40;4.65;;;;;;;1.36;100.00;98739.66;5005794;28;20030;-67
2022/01/06 07:04:17;;;;;;;11.95;4.60;;;;;;;1.35;100.00;98742.22;5005731;28;20026;-67
2022/01/06 07:06:43;;;;;;;16.30;4.97;;;;;;;1.32;100.00;98745.66;5005666;28;20041;-67
2022/01/06 07:09:08;;;;;;;10.57;4.50;;;;;;;1.20;100.00;98744.56;5005882;28;20191;-67
2022/01/06 07:11:34;;;;;;;10.75;4.65;;;;;;;1.21;100.00;98746.31;5005564;28;20022;-67
2022/01/06 07:13:59;;;;;;;17.35;3.70;;;;;;;1.26;100.00;98752.44;5005524;28;20068;-67
2022/01/06 07:16:25;;;;;;;18.75;5.28;;;;;;;1.27;100.00;98749.00;5005512;28;20046;-67
2022/01/06 07:18:50;;;;;;;8.48;3.53;;;;;;;1.15;100.00;98760.03;5005421;28;20032;-67
2022/01/06 07:21:16;;;;;;;12.18;3.70;;;;;;;1.08;100.00;98762.47;5005343;28;20018;-67
2022/01/06 07:23:41;;;;;;;8.15;4.30;;;;;;;0.98;100.00;98770.91;5005295;28;20093;-67
2022/01/06 07:26:06;;;;;;;27.55;5.68;;;;;;;0.95;100.00;98773.44;5004029;28;20396;-67
2022/01/06 07:28:32;;;;;;;22.52;5.88;;;;;;;0.93;100.00;98777.69;5005271;28;20022;-67
2022/01/06 07:30:57;;;;;;;18.10;4.40;;;;;;;0.93;100.00;98776.00;5005217;28;20022;-67
2022/01/06 07:33:23;;;;;;;20.98;4.57;;;;;;;0.94;100.00;98779.44;5005211;28;20072;-67
2022/01/06 07:35:48;;;;;;;10.00;4.47;;;;;;;0.82;100.00;98787.81;5005125;28;20113;-67
2022/01/06 07:38:13;;;;;;;15.65;5.82;;;;;;;0.86;100.00;98783.59;5005102;28;20026;-67
2022/01/06 07:40:39;;;;;;;17.83;5.22;;;;;;;0.86;100.00;98784.50;5004971;28;20026;-67
2022/01/06 07:43:05;;;;;;;10.85;5.03;;;;;;;0.86;100.00;98796.56;5005031;28;20061;-67
2022/01/06 07:45:31;;;;;;;19.75;4.35;;;;;;;0.84;100.00;98795.63;5004976;28;20317;-67
2022/01/06 07:48:02;;;;;;;13.45;5.50;;;;;;;0.86;100.00;98796.56;5005203;28;20029;-67
2022/01/06 07:50:33;;;;;;;16.08;4.40;;;;;;;0.76;100.00;98792.88;5005214;28;20214;-67
2022/01/06 07:52:59;;;;;;;15.10;4.70;;;;;;;0.86;100.00;98797.44;5004899;28;20089;-67
2022/01/06 07:55:25;;;;;;;7.75;4.15;;;;;;;0.89;100.00;98806.97;5005076;28;20022;-67
2022/01/06 07:57:51;;;;;;;28.38;9.13;;;;;;;0.96;100.00;98808.84;5004769;28;20033;-67
2022/01/06 08:00:18;;;;;;;21.67;8.80;;;;;;;0.98;100.00;98807.19;5004540;28;20018;-67
2022/01/06 08:02:45;;;;;;;23.05;6.57;;;;;;;1.14;100.00;98815.28;5004446;28;20026;-67
2022/01/06 08:05:13;;;;;;;19.48;5.70;;;;;;;1.13;100.00;98823.03;5004933;28;20018;-67
2022/01/06 08:07:39;;;;;;;8.07;4.55;;;;;;;1.18;100.00;98824.00;5004898;28;20032;-67
2022/01/06 08:10:06;;;;;;;20.05;6.22;;;;;;;1.32;100.00;98835.50;5004593;28;20015;-67
2022/01/06 08:12:31;;;;;;;24.88;6.10;;;;;;;1.43;100.00;98834.03;5004560;28;20033;-67
2022/01/06 08:14:57;;;;;;;11.57;4.55;;;;;;;1.36;100.00;98832.16;5004575;28;20022;-67
2022/01/06 08:17:23;;;;;;;8.43;4.45;;;;;;;1.43;100.00;98828.84;5004660;28;20214;-67
2022/01/06 08:19:48;;;;;;;22.45;5.75;;;;;;;1.57;100.00;98832.56;5004415;28;20025;-67
2022/01/06 08:22:14;;;;;;;15.45;5.65;;;;;;;1.45;100.00;98840.09;5004542;28;20049;-67
2022/01/06 08:24:39;;;;;;;17.70;5.50;;;;;;;1.60;100.00;98832.63;5004267;28;20209;-67
2022/01/06 08:27:08;;;;;;;13.82;5.88;;;;;;;1.70;100.00;98834.53;5004425;28;20022;-67
2022/01/06 08:29:36;;;;;;;14.75;4.50;;;;;;;1.73;99.58;98834.59;5004676;28;20101;-67
2022/01/06 08:32:02;;;;;;;12.13;5.20;;;;;;;2.07;99.80;98843.00;5004383;28;20089;-67
2022/01/06 08:34:28;;;;;;;12.48;5.13;;;;;;;2.52;99.30;98840.28;5004348;28;20061;-67
2022/01/06 08:36:54;;;;;;;11.27;5.22;;;;;;;3.25;97.82;98850.84;5004344;28;20034;-67
2022/01/06 08:39:20;;;;;;;11.63;4.60;;;;;;;3.95;94.79;98856.00;5004275;28;20337;-67
2022/01/06 08:41:46;;;;;;;17.00;4.65;;;;;;;4.56;90.78;98859.16;5004406;28;20064;-67
2022/01/06 08:44:12;;;;;;;10.07;4.82;;;;;;;5.00;87.44;98857.72;5004304;28;20325;-67
2022/01/06 08:46:37;;;;;;;15.70;4.88;;;;;;;5.36;85.06;98857.91;5004294;28;20314;-67
2022/01/06 08:49:04;;;;;;;16.08;4.55;;;;;;;5.30;85.12;98857.88;5004252;28;20030;-67
2022/01/06 08:51:29;;;;;;;18.63;4.25;;;;;;;5.30;84.50;98857.88;5004187;28;20026;-67
2022/01/06 08:53:55;;;;;;;6.20;3.58;;;;;;;5.20;84.98;98850.88;5004170;28;20096;-67
2022/01/06 08:56:20;;;;;;;8.07;3.53;;;;;;;4.86;85.65;98854.16;5004234;28;20030;-67
2022/01/06 08:58:45;;;;;;;13.15;5.13;;;;;;;4.35;88.18;98859.84;5004204;28;20026;-67
2022/01/06 09:01:12;;;;;;;20.55;4.75;;;;;;;4.57;88.49;98866.09;5004074;28;20068;-67
2022/01/06 09:03:37;;;;;;;11.00;4.00;;;;;;;4.94;87.78;98862.91;5004071;28;20026;-67
2022/01/06 09:06:03;;;;;;;9.27;3.83;;;;;;;5.56;85.45;98856.25;5004071;28;20090;-67
2022/01/06 09:08:28;;;;;;;10.13;4.38;;;;;;;5.97;83.22;98859.91;5004320;28;20022;-67
2022/01/06 09:10:54;;;;;;;15.48;4.63;;;;;;;5.63;83.48;98864.13;5004095;28;20241;-67
2022/01/06 09:13:19;;;;;;;11.68;3.90;;;;;;;5.59;84.41;98867.59;5004936;28;20304;-66
2022/01/06 09:15:45;;;;;;;16.90;4.20;;;;;;;5.23;84.99;98867.44;5007773;28;20026;-66
2022/01/06 09:18:10;;;;;;;16.70;4.68;;;;;;;5.23;85.40;98871.78;5007720;28;20064;-66
2022/01/06 09:20:35;;;;;;;12.00;3.75;;;;;;;4.87;86.63;98868.94;5007632;28;20034;-66
2022/01/06 09:23:01;;;;;;;13.07;4.28;;;;;;;4.56;88.35;98880.00;5007627;28;20029;-66
2022/01/06 09:25:26;;;;;;;19.58;4.35;;;;;;;4.34;89.85;98877.19;5007371;28;20046;-66
2022/01/06 09:27:53;;;;;;;9.02;3.85;;;;;;;4.26;90.18;98886.69;5007529;28;20026;-66
2022/01/06 09:30:23;;;;;;;17.92;5.10;;;;;;;4.20;90.99;98886.63;5007578;28;20348;-66
2022/01/06 09:32:49;;;;;;;10.82;4.32;;;;;;;4.16;91.12;98884.88;5007471;28;20279;-66
2022/01/06 09:35:14;;;;;;;18.90;5.25;;;;;;;4.12;91.51;98893.50;5007687;28;20018;-66
2022/01/06 09:37:39;;;;;;;19.63;4.78;;;;;;;4.19;91.60;98895.31;5007365;28;20068;-66
2022/01/06 09:40:08;;;;;;;10.45;4.85;;;;;;;4.61;90.94;98899.16;5007258;28;20029;-66
2022/01/06 09:42:33;;;;;;;14.23;4.32;;;;;;;5.33;87.72;98904.88;5007194;28;20060;-67
2022/01/06 09:44:59;;;;;;;25.15;6.30;;;;;;;5.53;87.46;98903.22;5007225;28;20053;-67
2022/01/06 09:47:27;;;;;;;17.02;5.65;;;;;;;5.72;86.21;98910.28;5007118;28;20018;-67
2022/01/06 09:49:53;;;;;;;20.27;5.70;;;;;;;5.61;86.06;98909.38;5007065;28;20018;-67
2022/01/06 09:52:21;;;;;;;15.73;6.18;;;;;;;5.59;85.92;98909.38;5007069;28;20090;-67
2022/01/06 09:54:47;;;;;;;17.52;5.15;;;;;;;5.44;86.28;98908.44;5007273;28;20083;-67
2022/01/06 09:57:14;;;;;;;14.63;5.93;;;;;;;5.27;87.34;98915.28;5006981;28;20038;-67
2022/01/06 09:59:43;;;;;;;20.05;5.43;;;;;;;5.17;87.97;98913.47;5006880;28;20034;-67
2022/01/06 10:02:15;;;;;;;12.52;5.70;;;;;;;5.12;88.10;98910.00;5006884;28;20022;-67
2022/01/06 10:04:41;;;;;;;16.85;6.15;;;;;;;4.87;88.94;98908.06;5007144;28;20069;-67
2022/01/06 10:07:08;;;;;;;18.73;5.65;;;;;;;4.77;89.43;98911.47;5006860;28;20258;-67
2022/01/06 10:09:36;;;;;;;16.73;5.80;;;;;;;4.72;89.63;98911.44;5006767;28;20022;-67
2022/01/06 10:12:07;;;;;;;16.38;5.25;;;;;;;4.65;89.84;98911.38;5006758;28;20026;-67
2022/01/06 10:14:43;;;;;;;14.10;5.47;;;;;;;4.64;90.27;98904.38;5006686;28;20130;-67
2022/01/06 10:17:11;;;;;;;21.05;5.70;;;;;;;4.58;90.48;98904.34;5006610;28;20041;-67
2022/01/06 10:19:41;;;;;;;17.27;8.40;;;;;;;4.59;90.33;98903.50;5006491;28;20230;-67
2022/01/06 10:22:25;;;;;;;11.65;4.68;;;;;;;4.50;90.98;98907.75;5006596;28;20022;-67
2022/01/06 10:24:51;;;;;;;17.50;5.40;;;;;;;4.52;90.79;98905.16;5005750;28;20026;-67
2022/01/06 10:27:19;;;;;;;18.67;5.20;;;;;;;4.46;91.21;98911.19;5006433;28;20068;-67
2022/01/06 10:29:47;;;;;;;10.23;3.33;;;;;;;4.53;91.23;98907.78;5006410;28;20026;-67
2022/01/06 10:32:15;;;;;;;13.57;5.28;;;;;;;4.57;90.79;98902.59;5006646;28;20105;-67
2022/01/06 10:34:44;;;;;;;25.35;5.63;;;;;;;4.60;90.95;98903.50;5006305;28;20029;-67
2022/01/06 10:37:16;;;;;;;14.82;4.70;;;;;;;4.70;91.71;98909.66;5006214;28;20041;-67
2022/01/06 10:39:42;;;;;;;;;;;;;;;4.79;91.67;98914.94;5006569;28;20034;-67
2022/01/06 10:42:08;;;;;;;7.80;3.97;;;;;;;4.93;90.86;98902.91;5006118;28;19906;-67
2022/01/06 10:44:47;;;;;;;18.40;4.47;;;;;;;5.01;90.27;98906.41;5006355;28;20093;-67
2022/01/06 10:47:12;;;;;;;15.93;3.92;;;;;;;5.12;89.75;98904.75;5006094;28;20026;-67
2022/01/06 10:49:38;;;;;;;21.63;5.18;;;;;;;5.26;89.75;98903.97;5006042;28;20033;-67
2022/01/06 10:52:03;;;;;;;18.85;5.20;;;;;;;5.39;88.73;98903.19;5005988;28;20028;-67
2022/01/06 10:54:29;;;;;;;18.73;4.90;;;;;;;5.52;87.50;98902.38;5005946;28;20057;-67
2022/01/06 10:56:58;;;;;;;14.07;4.28;;;;;;;5.65;88.05;98913.75;5005890;28;20029;-67
2022/01/06 10:59:25;;;;;;;14.02;4.78;;;;;;;5.83;87.09;98906.03;5005763;28;20436;-67
2022/01/06 11:01:51;;;;;;;14.70;4.78;;;;;;;6.00;86.56;98909.56;5005866;28;20325;-67
2022/01/06 11:04:16;;;;;;;17.15;4.35;;;;;;;6.15;86.29;98906.97;5005685;28;20093;-67
2022/01/06 11:06:43;;;;;;;15.77;4.82;;;;;;;6.15;86.53;98901.75;5006081;28;20190;-67
2022/01/06 11:09:10;;;;;;;8.93;4.07;;;;;;;6.16;84.94;98898.25;5011963;28;20322;-67
2022/01/06 11:14:23;;;;;;;15.40;3.38;;;;;;;6.32;84.08;98900.03;5016209;28;20054;-67
2022/01/06 11:16:48;;;;;;;11.02;4.53;;;;;;;6.48;84.17;98897.44;5015491;28;20033;-67
2022/01/06 11:19:14;;;;;;;17.52;3.90;;;;;;;6.45;83.92;98901.78;5015042;28;20022;-67
2022/01/06 11:21:46;;;;;;;10.98;4.10;;;;;;;6.45;81.56;98901.78;5013952;28;20033;-67
2022/01/06 11:24:14;;;;;;;15.55;3.78;;;;;;;6.35;81.70;98889.59;5015762;28;20058;-67
2022/01/06 11:26:41;;;;;;;27.02;4.78;;;;;;;6.25;82.57;98900.91;5015483;28;20081;-67
2022/01/06 11:29:07;;;;;;;14.68;4.45;;;;;;;6.03;82.37;98896.50;5013152;28;20348;-67
2022/01/06 11:31:42;;;;;;;10.13;3.65;;;;;;;6.01;82.05;98893.03;5013935;28;20041;-67
2022/01/06 11:34:11;;;;;;;13.60;3.75;;;;;;;5.97;82.45;98892.13;5013611;28;20187;-67
2022/01/06 11:36:37;;;;;;;10.88;3.20;;;;;;;6.19;83.27;98893.03;5021209;28;20029;-67
2022/01/06 11:39:06;;;;;;;16.13;4.00;;;;;;;5.93;80.69;98889.50;5024205;28;20041;-67